sensor_id;sensor_type;location;lat;lon;timestamp;pressure;altitude;pressure_sealevel;temperature;humidity
31775;BME280;66189;49.000;11.640;2023-02-01T00:01:52;96330.13;;;1.11;88.07
31775;BME280;66189;49.000;11.640;2023-02-01T00:03:53;96321.19;;;1.06;88.18
31775;BME280;66189;49.000;11.640;2023-02-01T00:05:57;96314.53;;;1.09;87.71
31775;BME280;66189;49.000;11.640;2023-02-01T00:07:58;96319.47;;;1.16;87.45
31775;BME280;66189;49.000;11.640;2023-02-01T00:09:58;96311.53;;;1.16;87.75
31775;BME280;66189;49.000;11.640;2023-02-01T00:11:59;96325.13;;;1.09;87.60
31775;BME280;66189;49.000;11.640;2023-02-01T00:14:02;96320.38;;;1.06;87.84
31775;BME280;66189;49.000;11.640;2023-02-01T00:16:11;96320.63;;;1.10;87.73
31775;BME280;66189;49.000;11.640;2023-02-01T00:18:16;96313.16;;;1.12;87.75
31775;BME280;66189;49.000;11.640;2023-02-01T00:20:17;96318.19;;;1.13;87.54
31775;BME280;66189;49.000;11.640;2023-02-01T00:22:17;96311.25;;;1.17;87.59
31775;BME280;66189;49.000;11.640;2023-02-01T00:24:18;96315.97;;;1.20;87.08
31775;BME280;66189;49.000;11.640;2023-02-01T00:26:33;96321.19;;;1.26;86.88
31775;BME280;66189;49.000;11.640;2023-02-01T00:28:34;96313.81;;;1.22;87.05
31775;BME280;66189;49.000;11.640;2023-02-01T00:30:34;96303.91;;;1.28;87.15
31775;BME280;66189;49.000;11.640;2023-02-01T00:32:35;96299.47;;;1.23;87.15
31775;BME280;66189;49.000;11.640;2023-02-01T00:34:35;96305.41;;;1.34;86.73
31775;BME280;66189;49.000;11.640;2023-02-01T00:36:36;96293.47;;;1.18;87.16
31775;BME280;66189;49.000;11.640;2023-02-01T00:38:37;96319.97;;;1.37;87.04
31775;BME280;66189;49.000;11.640;2023-02-01T00:40:39;96311.78;;;1.33;86.66
31775;BME280;66189;49.000;11.640;2023-02-01T00:42:40;96326.81;;;1.38;86.87
31775;BME280;66189;49.000;11.640;2023-02-01T00:44:40;96317.59;;;1.35;86.76
31775;BME280;66189;49.000;11.640;2023-02-01T00:46:41;96312.50;;;1.39;86.81
31775;BME280;66189;49.000;11.640;2023-02-01T00:48:42;96312.00;;;1.37;86.74
31775;BME280;66189;49.000;11.640;2023-02-01T00:50:42;96316.94;;;1.44;86.42
31775;BME280;66189;49.000;11.640;2023-02-01T00:52:43;96306.41;;;1.38;86.47
31775;BME280;66189;49.000;11.640;2023-02-01T00:54:43;96310.13;;;1.37;86.18
31775;BME280;66189;49.000;11.640;2023-02-01T00:56:44;96309.75;;;1.44;86.65
31775;BME280;66189;49.000;11.640;2023-02-01T00:58:44;96310.34;;;1.41;86.36
31775;BME280;66189;49.000;11.640;2023-02-01T01:00:45;96299.16;;;1.44;86.64
31775;BME280;66189;49.000;11.640;2023-02-01T01:02:46;96310.84;;;1.43;86.64
31775;BME280;66189;49.000;11.640;2023-02-01T01:04:47;96316.22;;;1.38;86.26
31775;BME280;66189;49.000;11.640;2023-02-01T01:06:47;96315.56;;;1.46;86.16
31775;BME280;66189;49.000;11.640;2023-02-01T01:08:48;96324.16;;;1.38;86.65
31775;BME280;66189;49.000;11.640;2023-02-01T01:10:50;96324.09;;;1.43;86.03
31775;BME280;66189;49.000;11.640;2023-02-01T01:12:50;96326.75;;;1.43;85.65
31775;BME280;66189;49.000;11.640;2023-02-01T01:14:51;96309.47;;;1.46;85.72
31775;BME280;66189;49.000;11.640;2023-02-01T01:16:52;96319.88;;;1.42;85.65
31775;BME280;66189;49.000;11.640;2023-02-01T01:18:52;96313.00;;;1.41;85.79
31775;BME280;66189;49.000;11.640;2023-02-01T01:20:54;96319.88;;;1.42;86.07
31775;BME280;66189;49.000;11.640;2023-02-01T01:22:54;96327.06;;;1.41;86.18
31775;BME280;66189;49.000;11.640;2023-02-01T01:24:54;96322.53;;;1.42;85.79
31775;BME280;66189;49.000;11.640;2023-02-01T01:26:55;96314.88;;;1.40;85.79
31775;BME280;66189;49.000;11.640;2023-02-01T01:28:56;96320.66;;;1.42;85.91
31775;BME280;66189;49.000;11.640;2023-02-01T01:30:57;96326.75;;;1.43;85.84
31775;BME280;66189;49.000;11.640;2023-02-01T01:32:58;96318.81;;;1.43;85.89
31775;BME280;66189;49.000;11.640;2023-02-01T01:34:58;96326.66;;;1.48;86.10
31775;BME280;66189;49.000;11.640;2023-02-01T01:36:59;96317.66;;;1.49;85.67
31775;BME280;66189;49.000;11.640;2023-02-01T01:38:59;96325.66;;;1.44;85.97
31775;BME280;66189;49.000;11.640;2023-02-01T01:41:00;96318.44;;;1.50;86.05
31775;BME280;66189;49.000;11.640;2023-02-01T01:43:01;96318.13;;;1.51;85.14
31775;BME280;66189;49.000;11.640;2023-02-01T01:45:08;96321.66;;;1.47;85.56
31775;BME280;66189;49.000;11.640;2023-02-01T01:47:18;96309.75;;;1.44;85.80
31775;BME280;66189;49.000;11.640;2023-02-01T01:49:21;96315.47;;;1.51;85.45
31775;BME280;66189;49.000;11.640;2023-02-01T01:51:28;96309.13;;;1.52;85.45
31775;BME280;66189;49.000;11.640;2023-02-01T01:53:45;96308.31;;;1.52;85.68
31775;BME280;66189;49.000;11.640;2023-02-01T01:55:48;96305.47;;;1.48;85.58
31775;BME280;66189;49.000;11.640;2023-02-01T01:57:55;96301.66;;;1.54;85.25
31775;BME280;66189;49.000;11.640;2023-02-01T02:00:05;96293.50;;;1.51;85.71
31775;BME280;66189;49.000;11.640;2023-02-01T02:02:13;96285.75;;;1.54;85.18
31775;BME280;66189;49.000;11.640;2023-02-01T02:04:14;96292.97;;;1.49;85.50
31775;BME280;66189;49.000;11.640;2023-02-01T02:06:23;96285.75;;;1.54;85.26
31775;BME280;66189;49.000;11.640;2023-02-01T02:08:27;96287.53;;;1.59;84.94
31775;BME280;66189;49.000;11.640;2023-02-01T02:10:28;96291.34;;;1.53;85.06
31775;BME280;66189;49.000;11.640;2023-02-01T02:12:48;96273.06;;;1.51;85.22
31775;BME280;66189;49.000;11.640;2023-02-01T02:14:48;96270.41;;;1.51;85.48
31775;BME280;66189;49.000;11.640;2023-02-01T02:34:57;96274.66;;;1.52;85.54
31775;BME280;66189;49.000;11.640;2023-02-01T02:46:47;96265.41;;;1.50;85.45
31775;BME280;66189;49.000;11.640;2023-02-01T02:49:22;96256.97;;;1.48;86.09
31775;BME280;66189;49.000;11.640;2023-02-01T02:56:21;96272.56;;;1.49;85.67
31775;BME280;66189;49.000;11.640;2023-02-01T02:58:42;96261.47;;;1.47;85.52
31775;BME280;66189;49.000;11.640;2023-02-01T03:01:03;96238.69;;;1.46;85.50
31775;BME280;66189;49.000;11.640;2023-02-01T03:03:22;96256.97;;;1.48;85.40
31775;BME280;66189;49.000;11.640;2023-02-01T03:05:45;96249.19;;;1.51;85.46
31775;BME280;66189;49.000;11.640;2023-02-01T03:10:05;96254.22;;;1.53;85.27
31775;BME280;66189;49.000;11.640;2023-02-01T03:12:11;96247.31;;;1.52;85.25
31775;BME280;66189;49.000;11.640;2023-02-01T03:14:34;96242.16;;;1.60;84.87
31775;BME280;66189;49.000;11.640;2023-02-01T03:20:48;96245.91;;;1.59;84.73
31775;BME280;66189;49.000;11.640;2023-02-01T03:22:52;96248.84;;;1.58;84.46
31775;BME280;66189;49.000;11.640;2023-02-01T03:24:56;96243.72;;;1.62;84.90
31775;BME280;66189;49.000;11.640;2023-02-01T03:27:02;96244.44;;;1.67;83.84
31775;BME280;66189;49.000;11.640;2023-02-01T03:29:09;96256.31;;;1.70;83.56
31775;BME280;66189;49.000;11.640;2023-02-01T03:31:16;96260.53;;;1.71;83.21
31775;BME280;66189;49.000;11.640;2023-02-01T03:33:21;96238.53;;;1.70;82.97
31775;BME280;66189;49.000;11.640;2023-02-01T03:35:28;96232.72;;;1.68;83.50
31775;BME280;66189;49.000;11.640;2023-02-01T03:37:29;96228.00;;;1.65;83.34
31775;BME280;66189;49.000;11.640;2023-02-01T03:41:43;96224.19;;;1.71;82.85
31775;BME280;66189;49.000;11.640;2023-02-01T03:44:12;96221.81;;;1.70;83.07
31775;BME280;66189;49.000;11.640;2023-02-01T03:46:21;96219.88;;;1.75;82.94
31775;BME280;66189;49.000;11.640;2023-02-01T03:48:26;96216.75;;;1.73;82.62
31775;BME280;66189;49.000;11.640;2023-02-01T03:50:30;96212.41;;;1.77;82.56
31775;BME280;66189;49.000;11.640;2023-02-01T03:54:44;96208.69;;;1.78;81.93
31775;BME280;66189;49.000;11.640;2023-02-01T03:56:47;96224.69;;;1.73;82.83
31775;BME280;66189;49.000;11.640;2023-02-01T03:58:48;96223.81;;;1.78;82.03
31775;BME280;66189;49.000;11.640;2023-02-01T04:01:00;96224.59;;;1.78;82.33
31775;BME280;66189;49.000;11.640;2023-02-01T04:03:04;96228.03;;;1.79;82.46
31775;BME280;66189;49.000;11.640;2023-02-01T04:05:05;96225.59;;;1.83;81.30
31775;BME280;66189;49.000;11.640;2023-02-01T04:07:05;96233.25;;;1.84;82.06
31775;BME280;66189;49.000;11.640;2023-02-01T04:09:06;96244.34;;;1.86;81.19
31775;BME280;66189;49.000;11.640;2023-02-01T04:11:06;96213.88;;;1.84;81.26
31775;BME280;66189;49.000;11.640;2023-02-01T04:13:07;96218.88;;;1.85;81.35
31775;BME280;66189;49.000;11.640;2023-02-01T04:15:08;96218.31;;;1.88;81.42
31775;BME280;66189;49.000;11.640;2023-02-01T04:17:08;96223.81;;;1.92;81.02
31775;BME280;66189;49.000;11.640;2023-02-01T04:19:09;96232.06;;;1.90;81.09
31775;BME280;66189;49.000;11.640;2023-02-01T04:21:09;96227.53;;;1.91;81.50
31775;BME280;66189;49.000;11.640;2023-02-01T04:23:10;96222.53;;;1.89;81.34
31775;BME280;66189;49.000;11.640;2023-02-01T04:25:10;96225.00;;;1.86;81.51
31775;BME280;66189;49.000;11.640;2023-02-01T04:27:11;96225.47;;;1.88;81.23
31775;BME280;66189;49.000;11.640;2023-02-01T04:29:11;96227.75;;;1.94;81.10
31775;BME280;66189;49.000;11.640;2023-02-01T04:31:12;96220.97;;;1.88;81.39
31775;BME280;66189;49.000;11.640;2023-02-01T04:33:12;96223.34;;;1.90;81.37
31775;BME280;66189;49.000;11.640;2023-02-01T04:35:14;96204.25;;;1.88;81.52
31775;BME280;66189;49.000;11.640;2023-02-01T04:37:14;96223.22;;;1.95;81.27
31775;BME280;66189;49.000;11.640;2023-02-01T04:39:14;96215.97;;;1.87;81.92
31775;BME280;66189;49.000;11.640;2023-02-01T04:41:15;96203.97;;;1.89;81.53
31775;BME280;66189;49.000;11.640;2023-02-01T04:43:18;96196.00;;;1.89;81.95
31775;BME280;66189;49.000;11.640;2023-02-01T04:45:19;96206.31;;;1.91;81.90
31775;BME280;66189;49.000;11.640;2023-02-01T04:47:19;96194.81;;;1.95;81.40
31775;BME280;66189;49.000;11.640;2023-02-01T04:49:20;96213.41;;;1.95;81.68
31775;BME280;66189;49.000;11.640;2023-02-01T04:51:21;96208.91;;;1.96;81.91
31775;BME280;66189;49.000;11.640;2023-02-01T04:53:22;96193.56;;;1.93;81.62
31775;BME280;66189;49.000;11.640;2023-02-01T04:55:22;96194.94;;;1.90;82.15
31775;BME280;66189;49.000;11.640;2023-02-01T04:57:23;96194.34;;;1.93;82.12
31775;BME280;66189;49.000;11.640;2023-02-01T04:59:23;96199.06;;;1.97;81.91
31775;BME280;66189;49.000;11.640;2023-02-01T05:01:24;96185.91;;;1.91;81.63
31775;BME280;66189;49.000;11.640;2023-02-01T05:03:24;96175.19;;;1.97;81.80
31775;BME280;66189;49.000;11.640;2023-02-01T05:05:26;96185.50;;;1.98;81.94
31775;BME280;66189;49.000;11.640;2023-02-01T05:07:27;96185.91;;;1.91;81.98
31775;BME280;66189;49.000;11.640;2023-02-01T05:09:27;96186.09;;;1.95;81.84
31775;BME280;66189;49.000;11.640;2023-02-01T05:11:28;96177.13;;;1.91;81.69
31775;BME280;66189;49.000;11.640;2023-02-01T05:13:47;96168.69;;;1.89;82.35
31775;BME280;66189;49.000;11.640;2023-02-01T05:15:50;96164.09;;;1.94;82.17
31775;BME280;66189;49.000;11.640;2023-02-01T05:17:51;96177.66;;;1.93;81.84
31775;BME280;66189;49.000;11.640;2023-02-01T05:19:51;96175.28;;;1.91;82.12
31775;BME280;66189;49.000;11.640;2023-02-01T05:21:52;96164.38;;;1.93;81.98
31775;BME280;66189;49.000;11.640;2023-02-01T05:23:52;96166.81;;;1.89;82.00
31775;BME280;66189;49.000;11.640;2023-02-01T05:26:13;96169.47;;;1.89;81.63
31775;BME280;66189;49.000;11.640;2023-02-01T05:28:13;96171.06;;;1.90;81.76
31775;BME280;66189;49.000;11.640;2023-02-01T05:30:14;96161.72;;;1.93;81.46
31775;BME280;66189;49.000;11.640;2023-02-01T05:32:14;96161.63;;;1.84;81.83
31775;BME280;66189;49.000;11.640;2023-02-01T05:34:16;96169.59;;;1.84;81.74
31775;BME280;66189;49.000;11.640;2023-02-01T05:36:17;96171.34;;;1.89;81.47
31775;BME280;66189;49.000;11.640;2023-02-01T05:38:17;96162.09;;;1.86;81.17
31775;BME280;66189;49.000;11.640;2023-02-01T05:40:17;96155.44;;;1.89;81.36
31775;BME280;66189;49.000;11.640;2023-02-01T05:42:18;96157.09;;;1.85;81.61
31775;BME280;66189;49.000;11.640;2023-02-01T05:44:19;96145.19;;;1.82;81.61
31775;BME280;66189;49.000;11.640;2023-02-01T05:46:19;96134.28;;;1.84;81.13
31775;BME280;66189;49.000;11.640;2023-02-01T05:48:19;96137.63;;;1.89;81.03
31775;BME280;66189;49.000;11.640;2023-02-01T05:50:20;96138.75;;;1.88;81.39
31775;BME280;66189;49.000;11.640;2023-02-01T05:52:20;96137.84;;;1.93;80.89
31775;BME280;66189;49.000;11.640;2023-02-01T05:54:21;96136.75;;;1.80;81.81
31775;BME280;66189;49.000;11.640;2023-02-01T05:56:21;96146.41;;;1.90;80.84
31775;BME280;66189;49.000;11.640;2023-02-01T05:58:22;96137.94;;;1.88;80.92
31775;BME280;66189;49.000;11.640;2023-02-01T06:00:22;96144.03;;;1.88;80.99
31775;BME280;66189;49.000;11.640;2023-02-01T06:02:23;96137.16;;;1.87;80.94
31775;BME280;66189;49.000;11.640;2023-02-01T06:04:24;96137.56;;;1.94;80.75
31775;BME280;66189;49.000;11.640;2023-02-01T06:06:24;96136.66;;;1.85;81.38
31775;BME280;66189;49.000;11.640;2023-02-01T06:08:25;96134.28;;;1.84;81.12
31775;BME280;66189;49.000;11.640;2023-02-01T06:10:25;96135.41;;;1.83;80.92
31775;BME280;66189;49.000;11.640;2023-02-01T06:12:26;96145.50;;;1.94;80.49
31775;BME280;66189;49.000;11.640;2023-02-01T06:14:28;96134.50;;;1.87;80.47
31775;BME280;66189;49.000;11.640;2023-02-01T06:16:29;96142.16;;;1.89;80.68
31775;BME280;66189;49.000;11.640;2023-02-01T06:18:30;96133.91;;;1.90;80.97
31775;BME280;66189;49.000;11.640;2023-02-01T06:20:30;96145.59;;;1.89;81.11
31775;BME280;66189;49.000;11.640;2023-02-01T06:22:31;96134.59;;;1.96;80.20
31775;BME280;66189;49.000;11.640;2023-02-01T06:24:31;96142.28;;;1.98;80.61
31775;BME280;66189;49.000;11.640;2023-02-01T06:26:32;96144.41;;;1.95;80.33
31775;BME280;66189;49.000;11.640;2023-02-01T06:28:33;96136.16;;;1.97;79.99
31775;BME280;66189;49.000;11.640;2023-02-01T06:30:34;96137.56;;;1.94;80.38
31775;BME280;66189;49.000;11.640;2023-02-01T06:32:35;96125.84;;;1.95;80.49
31775;BME280;66189;49.000;11.640;2023-02-01T06:34:35;96136.75;;;1.94;80.53
31775;BME280;66189;49.000;11.640;2023-02-01T06:36:37;96153.78;;;1.93;80.73
31775;BME280;66189;49.000;11.640;2023-02-01T06:38:38;96142.66;;;1.91;80.24
31775;BME280;66189;49.000;11.640;2023-02-01T06:40:39;96134.91;;;1.94;80.33
31775;BME280;66189;49.000;11.640;2023-02-01T06:42:42;96143.94;;;1.93;80.80
31775;BME280;66189;49.000;11.640;2023-02-01T06:44:42;96141.88;;;1.90;80.87
31775;BME280;66189;49.000;11.640;2023-02-01T06:46:43;96138.72;;;2.02;80.47
31775;BME280;66189;49.000;11.640;2023-02-01T06:48:43;96140.50;;;1.93;80.56
31775;BME280;66189;49.000;11.640;2023-02-01T06:50:46;96145.22;;;1.96;80.71
31775;BME280;66189;49.000;11.640;2023-02-01T06:52:46;96159.56;;;1.95;80.70
31775;BME280;66189;49.000;11.640;2023-02-01T06:54:47;96148.06;;;2.00;80.69
31775;BME280;66189;49.000;11.640;2023-02-01T06:56:47;96145.69;;;1.98;80.66
31775;BME280;66189;49.000;11.640;2023-02-01T06:58:48;96138.03;;;1.97;80.64
31775;BME280;66189;49.000;11.640;2023-02-01T07:00:48;96144.63;;;1.99;80.89
31775;BME280;66189;49.000;11.640;2023-02-01T07:02:49;96127.13;;;1.98;80.89
31775;BME280;66189;49.000;11.640;2023-02-01T07:04:50;96133.91;;;2.04;80.40
31775;BME280;66189;49.000;11.640;2023-02-01T07:06:50;96131.25;;;2.04;80.96
31775;BME280;66189;49.000;11.640;2023-02-01T07:08:51;96141.44;;;2.11;80.81
31775;BME280;66189;49.000;11.640;2023-02-01T07:10:51;96129.28;;;2.10;80.52
31775;BME280;66189;49.000;11.640;2023-02-01T07:12:52;96138.69;;;2.16;80.55
31775;BME280;66189;49.000;11.640;2023-02-01T07:14:52;96139.59;;;2.11;81.35
31775;BME280;66189;49.000;11.640;2023-02-01T07:16:53;96152.06;;;2.11;81.02
31775;BME280;66189;49.000;11.640;2023-02-01T07:18:53;96157.34;;;2.11;81.55
31775;BME280;66189;49.000;11.640;2023-02-01T07:20:54;96148.31;;;2.12;81.66
31775;BME280;66189;49.000;11.640;2023-02-01T07:22:56;96143.19;;;2.16;81.63
31775;BME280;66189;49.000;11.640;2023-02-01T07:24:57;96150.69;;;2.13;82.24
31775;BME280;66189;49.000;11.640;2023-02-01T07:26:57;96139.78;;;2.15;82.52
31775;BME280;66189;49.000;11.640;2023-02-01T07:28:57;96160.91;;;2.20;82.50
31775;BME280;66189;49.000;11.640;2023-02-01T07:31:06;96172.69;;;2.14;82.46
31775;BME280;66189;49.000;11.640;2023-02-01T07:33:07;96181.53;;;2.09;83.49
31775;BME280;66189;49.000;11.640;2023-02-01T07:35:07;96185.47;;;2.12;83.58
31775;BME280;66189;49.000;11.640;2023-02-01T07:37:08;96175.47;;;2.09;83.97
31775;BME280;66189;49.000;11.640;2023-02-01T07:39:08;96178.41;;;2.07;84.55
31775;BME280;66189;49.000;11.640;2023-02-01T07:41:09;96181.47;;;2.01;84.53
31775;BME280;66189;49.000;11.640;2023-02-01T07:43:09;96182.75;;;1.89;84.94
31775;BME280;66189;49.000;11.640;2023-02-01T07:45:11;96167.59;;;1.76;85.34
31775;BME280;66189;49.000;11.640;2023-02-01T07:47:13;96176.44;;;1.71;85.54
31775;BME280;66189;49.000;11.640;2023-02-01T07:49:13;96183.16;;;1.69;85.93
31775;BME280;66189;49.000;11.640;2023-02-01T07:51:16;96173.13;;;1.66;86.43
31775;BME280;66189;49.000;11.640;2023-02-01T07:53:16;96187.63;;;1.54;86.34
31775;BME280;66189;49.000;11.640;2023-02-01T07:55:17;96174.47;;;1.49;87.06
31775;BME280;66189;49.000;11.640;2023-02-01T07:57:17;96181.63;;;1.49;87.21
31775;BME280;66189;49.000;11.640;2023-02-01T07:59:19;96190.69;;;1.48;87.29
31775;BME280;66189;49.000;11.640;2023-02-01T08:01:24;96187.44;;;1.51;87.39
31775;BME280;66189;49.000;11.640;2023-02-01T08:03:25;96197.81;;;1.47;87.81
31775;BME280;66189;49.000;11.640;2023-02-01T08:05:26;96197.63;;;1.44;88.08
31775;BME280;66189;49.000;11.640;2023-02-01T08:07:26;96215.13;;;1.45;88.23
31775;BME280;66189;49.000;11.640;2023-02-01T08:09:27;96203.72;;;1.44;87.72
31775;BME280;66189;49.000;11.640;2023-02-01T08:11:27;96205.41;;;1.40;88.62
31775;BME280;66189;49.000;11.640;2023-02-01T08:13:28;96208.63;;;1.37;88.28
31775;BME280;66189;49.000;11.640;2023-02-01T08:15:29;96192.31;;;1.30;88.46
31775;BME280;66189;49.000;11.640;2023-02-01T08:17:29;96187.78;;;1.30;88.48
31775;BME280;66189;49.000;11.640;2023-02-01T08:19:30;96193.31;;;1.34;88.09
31775;BME280;66189;49.000;11.640;2023-02-01T08:21:31;96186.91;;;1.35;87.55
31775;BME280;66189;49.000;11.640;2023-02-01T08:23:37;96191.53;;;1.29;88.00
31775;BME280;66189;49.000;11.640;2023-02-01T08:25:38;96193.03;;;1.35;87.94
31775;BME280;66189;49.000;11.640;2023-02-01T08:27:39;96200.09;;;1.40;87.83
31775;BME280;66189;49.000;11.640;2023-02-01T08:29:39;96205.56;;;1.30;88.14
31775;BME280;66189;49.000;11.640;2023-02-01T08:31:40;96210.88;;;1.30;87.95
31775;BME280;66189;49.000;11.640;2023-02-01T08:33:47;96206.63;;;1.29;87.99
31775;BME280;66189;49.000;11.640;2023-02-01T08:35:47;96219.41;;;1.27;88.24
31775;BME280;66189;49.000;11.640;2023-02-01T08:37:49;96209.66;;;1.22;88.11
31775;BME280;66189;49.000;11.640;2023-02-01T08:39:50;96211.03;;;1.19;88.04
31775;BME280;66189;49.000;11.640;2023-02-01T08:41:50;96197.13;;;1.28;87.25
31775;BME280;66189;49.000;11.640;2023-02-01T08:44:10;96193.38;;;1.29;87.62
31775;BME280;66189;49.000;11.640;2023-02-01T08:46:10;96198.19;;;1.27;88.25
31775;BME280;66189;49.000;11.640;2023-02-01T08:48:11;96197.91;;;1.28;88.13
31775;BME280;66189;49.000;11.640;2023-02-01T08:50:12;96204.69;;;1.34;88.12
31775;BME280;66189;49.000;11.640;2023-02-01T08:52:13;96184.25;;;1.35;87.71
31775;BME280;66189;49.000;11.640;2023-02-01T08:54:13;96191.16;;;1.36;87.90
31775;BME280;66189;49.000;11.640;2023-02-01T08:56:15;96196.75;;;1.34;87.71
31775;BME280;66189;49.000;11.640;2023-02-01T08:58:16;96195.09;;;1.38;87.43
31775;BME280;66189;49.000;11.640;2023-02-01T09:00:17;96204.09;;;1.37;87.40
31775;BME280;66189;49.000;11.640;2023-02-01T09:02:18;96209.00;;;1.44;87.43
31775;BME280;66189;49.000;11.640;2023-02-01T09:04:18;96198.06;;;1.51;86.79
31775;BME280;66189;49.000;11.640;2023-02-01T09:06:19;96208.25;;;1.44;87.16
31775;BME280;66189;49.000;11.640;2023-02-01T09:08:19;96197.81;;;1.47;87.15
31775;BME280;66189;49.000;11.640;2023-02-01T09:10:20;96202.94;;;1.44;87.33
31775;BME280;66189;49.000;11.640;2023-02-01T09:12:21;96215.50;;;1.52;86.99
31775;BME280;66189;49.000;11.640;2023-02-01T09:14:21;96218.84;;;1.44;87.49
31775;BME280;66189;49.000;11.640;2023-02-01T09:16:22;96210.13;;;1.43;87.97
31775;BME280;66189;49.000;11.640;2023-02-01T09:18:22;96209.91;;;1.39;88.16
31775;BME280;66189;49.000;11.640;2023-02-01T09:20:22;96207.19;;;1.45;88.03
31775;BME280;66189;49.000;11.640;2023-02-01T09:22:24;96199.13;;;1.50;87.55
31775;BME280;66189;49.000;11.640;2023-02-01T09:24:24;96208.25;;;1.57;87.74
31775;BME280;66189;49.000;11.640;2023-02-01T09:26:25;96207.06;;;1.50;87.69
31775;BME280;66189;49.000;11.640;2023-02-01T09:28:26;96206.59;;;1.62;88.27
31775;BME280;66189;49.000;11.640;2023-02-01T09:30:26;96206.19;;;1.54;87.74
31775;BME280;66189;49.000;11.640;2023-02-01T09:32:27;96215.16;;;1.58;87.46
31775;BME280;66189;49.000;11.640;2023-02-01T09:34:27;96209.84;;;1.58;87.49
31775;BME280;66189;49.000;11.640;2023-02-01T09:36:28;96212.38;;;1.64;87.61
31775;BME280;66189;49.000;11.640;2023-02-01T09:38:29;96197.19;;;1.69;87.46
31775;BME280;66189;49.000;11.640;2023-02-01T09:40:30;96210.34;;;1.74;87.18
31775;BME280;66189;49.000;11.640;2023-02-01T09:42:44;96211.44;;;1.73;86.92
31775;BME280;66189;49.000;11.640;2023-02-01T09:45:10;96214.09;;;1.73;87.37
31775;BME280;66189;49.000;11.640;2023-02-01T09:47:20;96212.22;;;1.74;87.10
31775;BME280;66189;49.000;11.640;2023-02-01T09:49:27;96209.75;;;1.77;87.11
31775;BME280;66189;49.000;11.640;2023-02-01T09:51:43;96215.56;;;1.80;87.21
31775;BME280;66189;49.000;11.640;2023-02-01T09:53:48;96230.31;;;1.86;86.87
31775;BME280;66189;49.000;11.640;2023-02-01T09:56:02;96231.88;;;1.87;86.58
31775;BME280;66189;49.000;11.640;2023-02-01T09:58:22;96233.66;;;1.91;87.09
31775;BME280;66189;49.000;11.640;2023-02-01T10:00:29;96234.25;;;2.02;86.12
31775;BME280;66189;49.000;11.640;2023-02-01T10:02:36;96242.69;;;2.04;86.14
31775;BME280;66189;49.000;11.640;2023-02-01T10:04:39;96252.31;;;2.00;86.19
31775;BME280;66189;49.000;11.640;2023-02-01T10:16:09;96246.78;;;2.38;82.37
31775;BME280;66189;49.000;11.640;2023-02-01T10:18:19;96243.06;;;2.39;82.90
31775;BME280;66189;49.000;11.640;2023-02-01T10:25:28;96240.09;;;2.55;81.76
31775;BME280;66189;49.000;11.640;2023-02-01T10:27:36;96233.88;;;2.59;80.23
31775;BME280;66189;49.000;11.640;2023-02-01T10:29:41;96254.78;;;2.52;81.29
31775;BME280;66189;49.000;11.640;2023-02-01T10:31:42;96254.81;;;2.61;80.59
31775;BME280;66189;49.000;11.640;2023-02-01T10:33:47;96258.78;;;2.63;80.56
31775;BME280;66189;49.000;11.640;2023-02-01T10:35:55;96260.44;;;2.59;79.83
31775;BME280;66189;49.000;11.640;2023-02-01T10:38:01;96252.28;;;2.56;80.62
31775;BME280;66189;49.000;11.640;2023-02-01T10:40:23;96272.66;;;2.60;79.99
31775;BME280;66189;49.000;11.640;2023-02-01T10:42:26;96260.94;;;2.61;79.83
31775;BME280;66189;49.000;11.640;2023-02-01T10:44:30;96269.09;;;2.65;78.44
31775;BME280;66189;49.000;11.640;2023-02-01T10:46:31;96256.97;;;2.73;78.54
31775;BME280;66189;49.000;11.640;2023-02-01T10:48:34;96267.91;;;2.71;78.35
31775;BME280;66189;49.000;11.640;2023-02-01T10:50:46;96259.06;;;2.98;77.67
31775;BME280;66189;49.000;11.640;2023-02-01T10:52:57;96264.38;;;2.98;77.84
31775;BME280;66189;49.000;11.640;2023-02-01T10:57:29;96255.69;;;3.29;76.62
31775;BME280;66189;49.000;11.640;2023-02-01T10:59:32;96266.16;;;3.26;75.39
31775;BME280;66189;49.000;11.640;2023-02-01T11:01:40;96252.31;;;3.15;74.74
31775;BME280;66189;49.000;11.640;2023-02-01T11:03:42;96250.03;;;2.99;75.05
31775;BME280;66189;49.000;11.640;2023-02-01T11:05:45;96251.09;;;2.98;75.75
31775;BME280;66189;49.000;11.640;2023-02-01T11:07:48;96251.88;;;2.99;75.96
31775;BME280;66189;49.000;11.640;2023-02-01T11:09:51;96258.91;;;2.95;75.91
31775;BME280;66189;49.000;11.640;2023-02-01T11:11:58;96261.94;;;2.88;75.88
31775;BME280;66189;49.000;11.640;2023-02-01T11:14:14;96258.34;;;2.84;75.68
31775;BME280;66189;49.000;11.640;2023-02-01T11:16:15;96264.44;;;2.84;76.30
31775;BME280;66189;49.000;11.640;2023-02-01T11:18:19;96267.22;;;2.79;75.98
31775;BME280;66189;49.000;11.640;2023-02-01T11:20:37;96247.81;;;2.79;76.65
31775;BME280;66189;49.000;11.640;2023-02-01T11:22:54;96251.84;;;2.76;75.91
31775;BME280;66189;49.000;11.640;2023-02-01T11:24:56;96243.56;;;2.78;76.44
31775;BME280;66189;49.000;11.640;2023-02-01T11:27:02;96239.38;;;2.77;76.05
31775;BME280;66189;49.000;11.640;2023-02-01T11:29:10;96238.94;;;2.83;76.45
31775;BME280;66189;49.000;11.640;2023-02-01T11:31:13;96251.16;;;2.84;76.00
31775;BME280;66189;49.000;11.640;2023-02-01T11:33:20;96251.94;;;2.85;75.71
31775;BME280;66189;49.000;11.640;2023-02-01T11:35:27;96243.84;;;2.90;75.94
31775;BME280;66189;49.000;11.640;2023-02-01T11:37:32;96245.31;;;2.96;75.92
31775;BME280;66189;49.000;11.640;2023-02-01T11:39:34;96233.28;;;2.99;75.39
31775;BME280;66189;49.000;11.640;2023-02-01T11:41:41;96236.84;;;3.17;75.55
31775;BME280;66189;49.000;11.640;2023-02-01T11:43:59;96240.88;;;3.37;74.86
31775;BME280;66189;49.000;11.640;2023-02-01T11:46:03;96230.75;;;3.39;75.24
31775;BME280;66189;49.000;11.640;2023-02-01T11:48:16;96223.34;;;3.59;75.27
31775;BME280;66189;49.000;11.640;2023-02-01T11:50:21;96219.16;;;3.66;74.97
31775;BME280;66189;49.000;11.640;2023-02-01T12:02:02;96219.28;;;3.30;76.35
31775;BME280;66189;49.000;11.640;2023-02-01T12:04:57;96206.41;;;3.23;76.75